sensor_id;sensor_type;location;lat;lon;timestamp;temperature;humidity
2783;DHT22;1399;47.072;15.452;2024-02-14T00:01:56;10.60;43.30
2783;DHT22;1399;47.072;15.452;2024-02-14T00:04:21;10.60;43.30
2783;DHT22;1399;47.072;15.452;2024-02-14T00:06:47;10.60;43.30
2783;DHT22;1399;47.072;15.452;2024-02-14T00:09:13;10.50;43.20
2783;DHT22;1399;47.072;15.452;2024-02-14T00:11:38;10.50;43.20
2783;DHT22;1399;47.072;15.452;2024-02-14T00:14:04;10.50;43.30
2783;DHT22;1399;47.072;15.452;2024-02-14T00:16:30;10.50;43.20
2783;DHT22;1399;47.072;15.452;2024-02-14T00:18:56;10.50;43.30
2783;DHT22;1399;47.072;15.452;2024-02-14T00:21:23;10.50;43.30
2783;DHT22;1399;47.072;15.452;2024-02-14T00:23:50;10.40;43.20
2783;DHT22;1399;47.072;15.452;2024-02-14T00:26:16;10.40;43.20
2783;DHT22;1399;47.072;15.452;2024-02-14T00:28:42;10.40;43.30
2783;DHT22;1399;47.072;15.452;2024-02-14T00:31:08;10.40;43.30
2783;DHT22;1399;47.072;15.452;2024-02-14T00:33:33;10.30;43.20
2783;DHT22;1399;47.072;15.452;2024-02-14T00:35:59;10.30;43.20
2783;DHT22;1399;47.072;15.452;2024-02-14T00:38:25;10.30;43.30
2783;DHT22;1399;47.072;15.452;2024-02-14T00:40:50;10.30;43.40
2783;DHT22;1399;47.072;15.452;2024-02-14T00:43:16;10.20;43.30
2783;DHT22;1399;47.072;15.452;2024-02-14T00:45:42;10.20;43.40
2783;DHT22;1399;47.072;15.452;2024-02-14T00:48:07;10.20;43.40
2783;DHT22;1399;47.072;15.452;2024-02-14T00:50:33;10.10;43.40
2783;DHT22;1399;47.072;15.452;2024-02-14T00:52:59;10.10;43.40
2783;DHT22;1399;47.072;15.452;2024-02-14T00:55:25;10.10;43.50
2783;DHT22;1399;47.072;15.452;2024-02-14T00:57:52;10.10;43.40
2783;DHT22;1399;47.072;15.452;2024-02-14T01:00:20;10.10;43.50
2783;DHT22;1399;47.072;15.452;2024-02-14T01:02:45;10.10;43.50
2783;DHT22;1399;47.072;15.452;2024-02-14T01:05:11;10.00;43.50
2783;DHT22;1399;47.072;15.452;2024-02-14T01:07:37;10.00;43.50
2783;DHT22;1399;47.072;15.452;2024-02-14T01:10:03;10.00;43.50
2783;DHT22;1399;47.072;15.452;2024-02-14T01:12:29;10.00;43.50
2783;DHT22;1399;47.072;15.452;2024-02-14T01:14:56;10.00;44.10
2783;DHT22;1399;47.072;15.452;2024-02-14T01:17:22;10.00;43.50
2783;DHT22;1399;47.072;15.452;2024-02-14T01:19:48;10.00;43.60
2783;DHT22;1399;47.072;15.452;2024-02-14T01:22:14;9.90;44.30
2783;DHT22;1399;47.072;15.452;2024-02-14T01:24:42;9.90;44.30
2783;DHT22;1399;47.072;15.452;2024-02-14T01:27:08;9.90;44.30
2783;DHT22;1399;47.072;15.452;2024-02-14T01:29:34;9.90;44.40
2783;DHT22;1399;47.072;15.452;2024-02-14T01:32:00;9.90;44.40
2783;DHT22;1399;47.072;15.452;2024-02-14T01:34:26;9.90;44.30
2783;DHT22;1399;47.072;15.452;2024-02-14T01:36:53;9.90;44.40
2783;DHT22;1399;47.072;15.452;2024-02-14T01:39:20;9.80;44.90
2783;DHT22;1399;47.072;15.452;2024-02-14T01:41:48;9.80;44.30
2783;DHT22;1399;47.072;15.452;2024-02-14T01:44:15;9.80;44.40
2783;DHT22;1399;47.072;15.452;2024-02-14T01:46:42;9.70;44.40
2783;DHT22;1399;47.072;15.452;2024-02-14T01:49:09;9.70;44.40
2783;DHT22;1399;47.072;15.452;2024-02-14T01:51:36;9.70;44.40
2783;DHT22;1399;47.072;15.452;2024-02-14T01:54:02;9.70;44.50
2783;DHT22;1399;47.072;15.452;2024-02-14T01:56:30;9.70;44.50
2783;DHT22;1399;47.072;15.452;2024-02-14T01:58:58;9.70;44.50
2783;DHT22;1399;47.072;15.452;2024-02-14T02:01:25;9.70;44.50
2783;DHT22;1399;47.072;15.452;2024-02-14T02:03:50;9.60;44.40
2783;DHT22;1399;47.072;15.452;2024-02-14T02:06:16;9.60;44.50
2783;DHT22;1399;47.072;15.452;2024-02-14T02:08:45;9.60;44.50
2783;DHT22;1399;47.072;15.452;2024-02-14T02:11:11;9.60;44.50
2783;DHT22;1399;47.072;15.452;2024-02-14T02:13:37;9.60;44.50
2783;DHT22;1399;47.072;15.452;2024-02-14T02:16:05;9.60;44.50
2783;DHT22;1399;47.072;15.452;2024-02-14T02:18:31;9.60;44.50
2783;DHT22;1399;47.072;15.452;2024-02-14T02:20:57;9.60;44.50
2783;DHT22;1399;47.072;15.452;2024-02-14T02:23:23;9.60;44.70
2783;DHT22;1399;47.072;15.452;2024-02-14T02:25:49;9.50;44.50
2783;DHT22;1399;47.072;15.452;2024-02-14T02:28:16;9.50;44.50
2783;DHT22;1399;47.072;15.452;2024-02-14T02:30:41;9.50;44.50
2783;DHT22;1399;47.072;15.452;2024-02-14T02:33:07;9.50;44.50
2783;DHT22;1399;47.072;15.452;2024-02-14T02:35:34;9.50;44.50
2783;DHT22;1399;47.072;15.452;2024-02-14T02:38:00;9.50;44.50
2783;DHT22;1399;47.072;15.452;2024-02-14T02:40:26;9.50;44.50
2783;DHT22;1399;47.072;15.452;2024-02-14T02:42:55;9.50;44.50
2783;DHT22;1399;47.072;15.452;2024-02-14T02:45:21;9.40;44.40
2783;DHT22;1399;47.072;15.452;2024-02-14T02:47:46;9.50;44.50
2783;DHT22;1399;47.072;15.452;2024-02-14T02:50:13;9.50;44.50
2783;DHT22;1399;47.072;15.452;2024-02-14T02:52:39;9.40;44.40
2783;DHT22;1399;47.072;15.452;2024-02-14T02:55:07;9.40;44.40
2783;DHT22;1399;47.072;15.452;2024-02-14T02:57:33;9.40;44.50
2783;DHT22;1399;47.072;15.452;2024-02-14T02:59:59;9.40;44.40
2783;DHT22;1399;47.072;15.452;2024-02-14T03:02:25;9.40;44.50
2783;DHT22;1399;47.072;15.452;2024-02-14T03:04:51;9.40;44.40
2783;DHT22;1399;47.072;15.452;2024-02-14T03:07:21;9.40;44.40
2783;DHT22;1399;47.072;15.452;2024-02-14T03:09:49;9.40;44.50
2783;DHT22;1399;47.072;15.452;2024-02-14T03:12:15;9.40;44.50
2783;DHT22;1399;47.072;15.452;2024-02-14T03:14:44;9.40;44.50
2783;DHT22;1399;47.072;15.452;2024-02-14T03:17:11;9.30;44.40
2783;DHT22;1399;47.072;15.452;2024-02-14T03:19:40;9.30;44.50
2783;DHT22;1399;47.072;15.452;2024-02-14T03:22:06;9.30;44.50
2783;DHT22;1399;47.072;15.452;2024-02-14T03:24:34;9.30;44.50
2783;DHT22;1399;47.072;15.452;2024-02-14T03:27:03;9.30;44.50
2783;DHT22;1399;47.072;15.452;2024-02-14T03:29:30;9.20;44.50
2783;DHT22;1399;47.072;15.452;2024-02-14T03:31:56;9.20;44.50
2783;DHT22;1399;47.072;15.452;2024-02-14T03:34:24;9.20;44.50
2783;DHT22;1399;47.072;15.452;2024-02-14T03:36:50;9.20;44.50
2783;DHT22;1399;47.072;15.452;2024-02-14T03:39:16;9.20;44.60
2783;DHT22;1399;47.072;15.452;2024-02-14T03:41:42;9.20;44.60
2783;DHT22;1399;47.072;15.452;2024-02-14T03:44:08;9.10;44.50
2783;DHT22;1399;47.072;15.452;2024-02-14T03:46:35;9.10;44.60
2783;DHT22;1399;47.072;15.452;2024-02-14T03:49:02;9.10;44.60
2783;DHT22;1399;47.072;15.452;2024-02-14T03:51:28;9.10;44.60
2783;DHT22;1399;47.072;15.452;2024-02-14T03:53:54;9.10;44.70
2783;DHT22;1399;47.072;15.452;2024-02-14T03:56:19;9.10;44.70
2783;DHT22;1399;47.072;15.452;2024-02-14T03:58:45;9.00;44.60
2783;DHT22;1399;47.072;15.452;2024-02-14T04:01:12;9.00;44.70
2783;DHT22;1399;47.072;15.452;2024-02-14T04:03:39;9.00;44.70
2783;DHT22;1399;47.072;15.452;2024-02-14T04:06:05;9.00;44.70
2783;DHT22;1399;47.072;15.452;2024-02-14T04:08:31;9.00;44.70
2783;DHT22;1399;47.072;15.452;2024-02-14T04:10:57;9.00;44.70
2783;DHT22;1399;47.072;15.452;2024-02-14T04:13:23;9.00;44.70
2783;DHT22;1399;47.072;15.452;2024-02-14T04:15:49;9.00;44.70
2783;DHT22;1399;47.072;15.452;2024-02-14T04:18:15;9.00;44.70
2783;DHT22;1399;47.072;15.452;2024-02-14T04:20:43;9.00;44.80
2783;DHT22;1399;47.072;15.452;2024-02-14T04:23:10;8.90;44.70
2783;DHT22;1399;47.072;15.452;2024-02-14T04:25:36;8.90;44.60
2783;DHT22;1399;47.072;15.452;2024-02-14T04:28:05;9.00;44.70
2783;DHT22;1399;47.072;15.452;2024-02-14T04:30:31;8.90;44.60
2783;DHT22;1399;47.072;15.452;2024-02-14T04:32:57;8.90;44.60
2783;DHT22;1399;47.072;15.452;2024-02-14T04:35:23;8.90;44.60
2783;DHT22;1399;47.072;15.452;2024-02-14T04:37:48;8.90;44.70
2783;DHT22;1399;47.072;15.452;2024-02-14T04:40:15;8.90;44.60
2783;DHT22;1399;47.072;15.452;2024-02-14T04:42:41;8.90;44.60
2783;DHT22;1399;47.072;15.452;2024-02-14T04:45:07;8.90;44.60
2783;DHT22;1399;47.072;15.452;2024-02-14T04:47:34;8.90;44.60
2783;DHT22;1399;47.072;15.452;2024-02-14T04:49:59;8.90;44.60
2783;DHT22;1399;47.072;15.452;2024-02-14T04:52:27;8.90;44.60
2783;DHT22;1399;47.072;15.452;2024-02-14T04:54:52;8.90;44.70
2783;DHT22;1399;47.072;15.452;2024-02-14T04:57:18;8.90;44.70
2783;DHT22;1399;47.072;15.452;2024-02-14T04:59:46;8.90;44.70
2783;DHT22;1399;47.072;15.452;2024-02-14T05:02:11;8.80;44.60
2783;DHT22;1399;47.072;15.452;2024-02-14T05:04:37;8.90;44.70
2783;DHT22;1399;47.072;15.452;2024-02-14T05:07:05;8.90;44.70
2783;DHT22;1399;47.072;15.452;2024-02-14T05:09:30;8.90;44.70
2783;DHT22;1399;47.072;15.452;2024-02-14T05:11:56;8.90;44.80
2783;DHT22;1399;47.072;15.452;2024-02-14T05:14:22;8.90;44.70
2783;DHT22;1399;47.072;15.452;2024-02-14T05:16:49;8.80;44.70
2783;DHT22;1399;47.072;15.452;2024-02-14T05:19:15;8.90;44.80
2783;DHT22;1399;47.072;15.452;2024-02-14T05:21:41;8.80;44.80
2783;DHT22;1399;47.072;15.452;2024-02-14T05:24:07;8.80;44.80
2783;DHT22;1399;47.072;15.452;2024-02-14T05:26:34;8.80;44.80
2783;DHT22;1399;47.072;15.452;2024-02-14T05:29:01;8.80;44.90
2783;DHT22;1399;47.072;15.452;2024-02-14T05:31:46;8.80;44.90
2783;DHT22;1399;47.072;15.452;2024-02-14T05:34:14;8.80;44.90
2783;DHT22;1399;47.072;15.452;2024-02-14T05:36:39;8.80;44.90
2783;DHT22;1399;47.072;15.452;2024-02-14T05:39:05;8.80;44.90
2783;DHT22;1399;47.072;15.452;2024-02-14T05:41:31;8.80;44.90
2783;DHT22;1399;47.072;15.452;2024-02-14T05:43:58;8.80;44.90
2783;DHT22;1399;47.072;15.452;2024-02-14T05:46:24;8.80;44.90
2783;DHT22;1399;47.072;15.452;2024-02-14T05:48:51;8.70;44.80
2783;DHT22;1399;47.072;15.452;2024-02-14T05:51:18;8.70;44.80
2783;DHT22;1399;47.072;15.452;2024-02-14T05:53:44;8.70;44.90
2783;DHT22;1399;47.072;15.452;2024-02-14T05:56:10;8.70;44.90
2783;DHT22;1399;47.072;15.452;2024-02-14T05:58:35;8.70;44.90
2783;DHT22;1399;47.072;15.452;2024-02-14T06:01:01;8.70;45.00
2783;DHT22;1399;47.072;15.452;2024-02-14T06:03:27;8.70;45.00
2783;DHT22;1399;47.072;15.452;2024-02-14T06:05:53;8.70;45.00
2783;DHT22;1399;47.072;15.452;2024-02-14T06:08:19;8.70;45.00
2783;DHT22;1399;47.072;15.452;2024-02-14T06:10:44;8.70;45.00
2783;DHT22;1399;47.072;15.452;2024-02-14T06:13:10;8.70;45.00
2783;DHT22;1399;47.072;15.452;2024-02-14T06:15:36;8.70;45.00
2783;DHT22;1399;47.072;15.452;2024-02-14T06:18:02;8.70;45.00
2783;DHT22;1399;47.072;15.452;2024-02-14T06:20:27;8.70;45.00
2783;DHT22;1399;47.072;15.452;2024-02-14T06:22:53;8.70;45.00
2783;DHT22;1399;47.072;15.452;2024-02-14T06:25:20;8.70;45.10
2783;DHT22;1399;47.072;15.452;2024-02-14T06:27:45;8.70;45.00
2783;DHT22;1399;47.072;15.452;2024-02-14T06:30:11;8.70;45.00
2783;DHT22;1399;47.072;15.452;2024-02-14T06:32:37;8.70;45.10
2783;DHT22;1399;47.072;15.452;2024-02-14T06:35:03;8.70;45.10
2783;DHT22;1399;47.072;15.452;2024-02-14T06:37:29;8.70;45.10
2783;DHT22;1399;47.072;15.452;2024-02-14T06:39:55;8.70;45.10
2783;DHT22;1399;47.072;15.452;2024-02-14T06:42:20;8.70;45.20
2783;DHT22;1399;47.072;15.452;2024-02-14T06:44:46;8.70;45.20
2783;DHT22;1399;47.072;15.452;2024-02-14T06:47:12;8.70;45.20
2783;DHT22;1399;47.072;15.452;2024-02-14T06:49:38;8.70;45.20
2783;DHT22;1399;47.072;15.452;2024-02-14T06:52:04;8.70;45.20
2783;DHT22;1399;47.072;15.452;2024-02-14T06:54:30;8.70;45.90
2783;DHT22;1399;47.072;15.452;2024-02-14T06:56:56;8.80;45.30
2783;DHT22;1399;47.072;15.452;2024-02-14T06:59:22;8.80;45.30
2783;DHT22;1399;47.072;15.452;2024-02-14T07:01:47;8.80;45.30
2783;DHT22;1399;47.072;15.452;2024-02-14T07:04:13;8.80;45.20
2783;DHT22;1399;47.072;15.452;2024-02-14T07:06:39;8.80;45.30
2783;DHT22;1399;47.072;15.452;2024-02-14T07:09:04;8.90;45.30
2783;DHT22;1399;47.072;15.452;2024-02-14T07:11:30;8.80;45.20
2783;DHT22;1399;47.072;15.452;2024-02-14T07:13:56;8.90;45.20
2783;DHT22;1399;47.072;15.452;2024-02-14T07:16:22;8.90;45.20
2783;DHT22;1399;47.072;15.452;2024-02-14T07:18:49;8.90;45.20
2783;DHT22;1399;47.072;15.452;2024-02-14T07:21:14;9.00;45.30
2783;DHT22;1399;47.072;15.452;2024-02-14T07:23:40;9.00;45.30
2783;DHT22;1399;47.072;15.452;2024-02-14T07:26:06;9.10;45.40
2783;DHT22;1399;47.072;15.452;2024-02-14T07:28:32;9.10;45.40
2783;DHT22;1399;47.072;15.452;2024-02-14T07:30:57;9.10;45.40
2783;DHT22;1399;47.072;15.452;2024-02-14T07:33:23;9.20;45.40
2783;DHT22;1399;47.072;15.452;2024-02-14T07:35:49;9.20;45.50
2783;DHT22;1399;47.072;15.452;2024-02-14T07:38:15;9.30;45.60
2783;DHT22;1399;47.072;15.452;2024-02-14T07:40:42;9.30;45.60
2783;DHT22;1399;47.072;15.452;2024-02-14T07:43:08;9.40;45.50
2783;DHT22;1399;47.072;15.452;2024-02-14T07:45:33;9.40;45.40
2783;DHT22;1399;47.072;15.452;2024-02-14T07:47:59;9.40;45.40
2783;DHT22;1399;47.072;15.452;2024-02-14T07:50:25;9.50;45.40
2783;DHT22;1399;47.072;15.452;2024-02-14T07:52:50;9.50;45.40
2783;DHT22;1399;47.072;15.452;2024-02-14T07:55:16;9.60;45.40
2783;DHT22;1399;47.072;15.452;2024-02-14T07:57:42;9.60;45.40
2783;DHT22;1399;47.072;15.452;2024-02-14T08:00:09;9.70;45.40
2783;DHT22;1399;47.072;15.452;2024-02-14T08:02:36;9.70;45.30
2783;DHT22;1399;47.072;15.452;2024-02-14T08:05:02;9.70;45.20
2783;DHT22;1399;47.072;15.452;2024-02-14T08:07:30;9.80;45.20
2783;DHT22;1399;47.072;15.452;2024-02-14T08:09:56;9.80;45.20
2783;DHT22;1399;47.072;15.452;2024-02-14T08:12:22;9.80;45.10
2783;DHT22;1399;47.072;15.452;2024-02-14T08:14:48;9.90;45.20
2783;DHT22;1399;47.072;15.452;2024-02-14T08:17:14;9.90;45.20
2783;DHT22;1399;47.072;15.452;2024-02-14T08:19:40;10.00;44.40
2783;DHT22;1399;47.072;15.452;2024-02-14T08:22:06;10.00;44.30
2783;DHT22;1399;47.072;15.452;2024-02-14T08:24:32;10.00;44.30
2783;DHT22;1399;47.072;15.452;2024-02-14T08:26:58;10.10;44.20
2783;DHT22;1399;47.072;15.452;2024-02-14T08:29:24;10.10;44.20
2783;DHT22;1399;47.072;15.452;2024-02-14T08:31:49;10.20;44.20
2783;DHT22;1399;47.072;15.452;2024-02-14T08:34:15;10.20;44.10
2783;DHT22;1399;47.072;15.452;2024-02-14T08:36:42;10.20;44.00
2783;DHT22;1399;47.072;15.452;2024-02-14T08:39:08;10.30;44.00
2783;DHT22;1399;47.072;15.452;2024-02-14T08:41:39;10.30;43.90
2783;DHT22;1399;47.072;15.452;2024-02-14T08:44:09;10.40;43.90
2783;DHT22;1399;47.072;15.452;2024-02-14T08:46:34;10.40;43.70
2783;DHT22;1399;47.072;15.452;2024-02-14T08:49:01;10.50;43.70
2783;DHT22;1399;47.072;15.452;2024-02-14T08:51:34;10.50;43.60
2783;DHT22;1399;47.072;15.452;2024-02-14T08:54:00;10.60;43.60
2783;DHT22;1399;47.072;15.452;2024-02-14T08:56:31;10.60;43.50
2783;DHT22;1399;47.072;15.452;2024-02-14T08:59:00;10.60;43.40
2783;DHT22;1399;47.072;15.452;2024-02-14T09:01:26;10.60;43.40
2783;DHT22;1399;47.072;15.452;2024-02-14T09:03:52;10.70;43.50
2783;DHT22;1399;47.072;15.452;2024-02-14T09:06:17;10.70;43.30
2783;DHT22;1399;47.072;15.452;2024-02-14T09:08:44;10.70;43.30
2783;DHT22;1399;47.072;15.452;2024-02-14T09:11:10;10.80;43.20
2783;DHT22;1399;47.072;15.452;2024-02-14T09:13:35;10.80;43.10
2783;DHT22;1399;47.072;15.452;2024-02-14T09:16:01;10.90;43.00
2783;DHT22;1399;47.072;15.452;2024-02-14T09:18:27;10.90;43.50
2783;DHT22;1399;47.072;15.452;2024-02-14T09:20:53;11.00;42.80
2783;DHT22;1399;47.072;15.452;2024-02-14T09:23:19;11.20;42.80
2783;DHT22;1399;47.072;15.452;2024-02-14T09:25:46;11.30;42.70
2783;DHT22;1399;47.072;15.452;2024-02-14T09:28:13;11.30;42.50
2783;DHT22;1399;47.072;15.452;2024-02-14T09:30:39;11.40;43.10
2783;DHT22;1399;47.072;15.452;2024-02-14T09:33:05;11.40;42.40
2783;DHT22;1399;47.072;15.452;2024-02-14T09:35:31;11.40;42.20
2783;DHT22;1399;47.072;15.452;2024-02-14T09:37:57;11.40;42.20
2783;DHT22;1399;47.072;15.452;2024-02-14T09:40:22;11.50;42.30
2783;DHT22;1399;47.072;15.452;2024-02-14T09:42:55;11.50;42.40
2783;DHT22;1399;47.072;15.452;2024-02-14T09:45:25;11.50;42.30
2783;DHT22;1399;47.072;15.452;2024-02-14T09:47:52;11.60;42.30
2783;DHT22;1399;47.072;15.452;2024-02-14T09:50:19;11.70;42.10
2783;DHT22;1399;47.072;15.452;2024-02-14T09:52:47;11.70;42.00
2783;DHT22;1399;47.072;15.452;2024-02-14T09:55:15;11.80;42.00
2783;DHT22;1399;47.072;15.452;2024-02-14T09:57:41;11.70;41.80
2783;DHT22;1399;47.072;15.452;2024-02-14T10:00:10;11.70;41.70
2783;DHT22;1399;47.072;15.452;2024-02-14T10:02:36;11.70;41.60
2783;DHT22;1399;47.072;15.452;2024-02-14T10:05:02;11.70;41.60
2783;DHT22;1399;47.072;15.452;2024-02-14T10:07:27;11.90;41.70
2783;DHT22;1399;47.072;15.452;2024-02-14T10:09:53;12.00;41.50
2783;DHT22;1399;47.072;15.452;2024-02-14T10:12:19;12.10;41.30
2783;DHT22;1399;47.072;15.452;2024-02-14T10:14:45;12.10;41.20
2783;DHT22;1399;47.072;15.452;2024-02-14T10:17:18;12.10;41.20
2783;DHT22;1399;47.072;15.452;2024-02-14T10:19:57;12.10;41.20
2783;DHT22;1399;47.072;15.452;2024-02-14T10:22:24;12.10;41.30
2783;DHT22;1399;47.072;15.452;2024-02-14T10:24:51;12.10;41.30
2783;DHT22;1399;47.072;15.452;2024-02-14T10:27:17;12.00;41.30
2783;DHT22;1399;47.072;15.452;2024-02-14T10:29:43;12.00;41.40
2783;DHT22;1399;47.072;15.452;2024-02-14T10:32:10;12.00;41.40
2783;DHT22;1399;47.072;15.452;2024-02-14T10:34:37;12.00;41.30
2783;DHT22;1399;47.072;15.452;2024-02-14T10:37:06;12.00;42.00
2783;DHT22;1399;47.072;15.452;2024-02-14T10:39:32;12.00;41.40
2783;DHT22;1399;47.072;15.452;2024-02-14T10:42:01;12.00;41.40
2783;DHT22;1399;47.072;15.452;2024-02-14T10:44:29;12.00;41.40
2783;DHT22;1399;47.072;15.452;2024-02-14T10:46:59;12.00;41.30
2783;DHT22;1399;47.072;15.452;2024-02-14T10:49:27;12.00;41.30
2783;DHT22;1399;47.072;15.452;2024-02-14T10:51:56;12.00;41.30
2783;DHT22;1399;47.072;15.452;2024-02-14T10:54:26;12.00;41.20
2783;DHT22;1399;47.072;15.452;2024-02-14T10:56:53;12.00;41.20
2783;DHT22;1399;47.072;15.452;2024-02-14T10:59:22;12.10;41.30
2783;DHT22;1399;47.072;15.452;2024-02-14T11:01:49;12.00;41.30
2783;DHT22;1399;47.072;15.452;2024-02-14T11:04:16;12.10;41.50
2783;DHT22;1399;47.072;15.452;2024-02-14T11:06:51;12.10;41.40
2783;DHT22;1399;47.072;15.452;2024-02-14T11:09:18;12.10;41.40
2783;DHT22;1399;47.072;15.452;2024-02-14T11:11:44;12.10;41.50
2783;DHT22;1399;47.072;15.452;2024-02-14T11:14:15;12.10;41.30
2783;DHT22;1399;47.072;15.452;2024-02-14T11:16:41;12.10;40.90
2783;DHT22;1399;47.072;15.452;2024-02-14T11:19:12;12.10;40.90
2783;DHT22;1399;47.072;15.452;2024-02-14T11:21:42;12.10;40.90
2783;DHT22;1399;47.072;15.452;2024-02-14T11:24:10;12.10;40.90
2783;DHT22;1399;47.072;15.452;2024-02-14T11:26:56;12.10;40.80
2783;DHT22;1399;47.072;15.452;2024-02-14T11:29:28;12.10;40.70
2783;DHT22;1399;47.072;15.452;2024-02-14T11:32:01;12.20;40.60
2783;DHT22;1399;47.072;15.452;2024-02-14T11:34:31;12.20;41.00
2783;DHT22;1399;47.072;15.452;2024-02-14T11:37:00;12.20;40.90
2783;DHT22;1399;47.072;15.452;2024-02-14T11:39:26;12.20;41.00
2783;DHT22;1399;47.072;15.452;2024-02-14T11:41:51;12.20;40.90
2783;DHT22;1399;47.072;15.452;2024-02-14T11:44:19;12.20;40.80
2783;DHT22;1399;47.072;15.452;2024-02-14T11:46:47;12.20;40.80
2783;DHT22;1399;47.072;15.452;2024-02-14T11:49:14;12.20;40.40
2783;DHT22;1399;47.072;15.452;2024-02-14T11:51:40;12.20;40.30
2783;DHT22;1399;47.072;15.452;2024-02-14T11:54:07;12.20;40.30
2783;DHT22;1399;47.072;15.452;2024-02-14T11:56:39;12.20;40.40
2783;DHT22;1399;47.072;15.452;2024-02-14T11:59:07;12.20;40.70
2783;DHT22;1399;47.072;15.452;2024-02-14T12:01:38;12.20;40.70
2783;DHT22;1399;47.072;15.452;2024-02-14T12:04:06;12.30;40.60
2783;DHT22;1399;47.072;15.452;2024-02-14T12:06:34;12.30;40.70
2783;DHT22;1399;47.072;15.452;2024-02-14T12:09:01;12.30;40.70
2783;DHT22;1399;47.072;15.452;2024-02-14T12:11:35;12.30;40.50
2783;DHT22;1399;47.072;15.452;2024-02-14T12:14:06;12.30;40.40
2783;DHT22;1399;47.072;15.452;2024-02-14T12:16:34;12.30;40.40
2783;DHT22;1399;47.072;15.452;2024-02-14T12:19:27;12.30;40.60
2783;DHT22;1399;47.072;15.452;2024-02-14T12:21:54;12.30;40.80
2783;DHT22;1399;47.072;15.452;2024-02-14T12:24:21;12.30;40.60
2783;DHT22;1399;47.072;15.452;2024-02-14T12:26:49;12.30;40.50
2783;DHT22;1399;47.072;15.452;2024-02-14T12:29:19;12.30;40.80
2783;DHT22;1399;47.072;15.452;2024-02-14T12:31:44;12.30;41.00
2783;DHT22;1399;47.072;15.452;2024-02-14T12:34:11;12.30;41.40
2783;DHT22;1399;47.072;15.452;2024-02-14T12:36:37;12.30;41.60
2783;DHT22;1399;47.072;15.452;2024-02-14T12:39:03;12.30;41.50
2783;DHT22;1399;47.072;15.452;2024-02-14T12:41:30;12.30;41.20
2783;DHT22;1399;47.072;15.452;2024-02-14T12:44:00;12.30;41.00
2783;DHT22;1399;47.072;15.452;2024-02-14T12:46:26;12.30;40.60
2783;DHT22;1399;47.072;15.452;2024-02-14T12:48:52;12.30;40.20
2783;DHT22;1399;47.072;15.452;2024-02-14T12:51:18;12.30;40.70
2783;DHT22;1399;47.072;15.452;2024-02-14T12:53:44;12.40;41.30
2783;DHT22;1399;47.072;15.452;2024-02-14T12:56:09;12.40;41.70
2783;DHT22;1399;47.072;15.452;2024-02-14T12:58:36;12.40;41.80
2783;DHT22;1399;47.072;15.452;2024-02-14T13:01:02;12.40;41.50
2783;DHT22;1399;47.072;15.452;2024-02-14T13:03:32;12.40;41.30
2783;DHT22;1399;47.072;15.452;2024-02-14T13:05:59;12.40;41.30
2783;DHT22;1399;47.072;15.452;2024-02-14T13:08:25;12.40;41.30
2783;DHT22;1399;47.072;15.452;2024-02-14T13:10:52;12.40;41.30
2783;DHT22;1399;47.072;15.452;2024-02-14T13:13:18;12.40;41.20
2783;DHT22;1399;47.072;15.452;2024-02-14T13:15:44;12.40;41.20
2783;DHT22;1399;47.072;15.452;2024-02-14T13:18:10;12.40;41.20
2783;DHT22;1399;47.072;15.452;2024-02-14T13:20:36;12.40;40.80
2783;DHT22;1399;47.072;15.452;2024-02-14T13:23:03;12.40;40.90
2783;DHT22;1399;47.072;15.452;2024-02-14T13:25:29;12.40;41.00
2783;DHT22;1399;47.072;15.452;2024-02-14T13:27:55;12.40;41.10
2783;DHT22;1399;47.072;15.452;2024-02-14T13:30:21;12.50;41.30
2783;DHT22;1399;47.072;15.452;2024-02-14T13:32:48;12.50;41.40
2783;DHT22;1399;47.072;15.452;2024-02-14T13:35:14;12.50;41.60
2783;DHT22;1399;47.072;15.452;2024-02-14T13:37:40;12.50;41.70
2783;DHT22;1399;47.072;15.452;2024-02-14T13:40:06;12.50;41.90
2783;DHT22;1399;47.072;15.452;2024-02-14T13:42:36;12.50;41.70
2783;DHT22;1399;47.072;15.452;2024-02-14T13:45:06;12.50;41.50
2783;DHT22;1399;47.072;15.452;2024-02-14T13:47:36;12.50;41.40
2783;DHT22;1399;47.072;15.452;2024-02-14T13:50:05;12.50;41.40
2783;DHT22;1399;47.072;15.452;2024-02-14T13:52:31;12.50;41.40
2783;DHT22;1399;47.072;15.452;2024-02-14T13:54:57;12.50;41.70
2783;DHT22;1399;47.072;15.452;2024-02-14T13:57:22;12.50;41.80
2783;DHT22;1399;47.072;15.452;2024-02-14T13:59:48;12.50;41.50
2783;DHT22;1399;47.072;15.452;2024-02-14T14:02:14;12.50;41.20
2783;DHT22;1399;47.072;15.452;2024-02-14T14:04:39;12.50;41.00
2783;DHT22;1399;47.072;15.452;2024-02-14T14:07:05;12.60;41.20
2783;DHT22;1399;47.072;15.452;2024-02-14T14:09:31;12.60;41.40
2783;DHT22;1399;47.072;15.452;2024-02-14T14:11:58;12.60;41.20
2783;DHT22;1399;47.072;15.452;2024-02-14T14:14:24;12.60;41.30
2783;DHT22;1399;47.072;15.452;2024-02-14T14:16:52;12.60;41.30
2783;DHT22;1399;47.072;15.452;2024-02-14T14:19:18;12.60;40.90
2783;DHT22;1399;47.072;15.452;2024-02-14T14:21:44;12.60;40.70
2783;DHT22;1399;47.072;15.452;2024-02-14T14:24:10;12.70;40.90
2783;DHT22;1399;47.072;15.452;2024-02-14T14:26:35;12.60;40.90
2783;DHT22;1399;47.072;15.452;2024-02-14T14:29:01;12.70;40.90
2783;DHT22;1399;47.072;15.452;2024-02-14T14:31:27;12.70;40.70
2783;DHT22;1399;47.072;15.452;2024-02-14T14:33:53;12.70;40.50
2783;DHT22;1399;47.072;15.452;2024-02-14T14:36:19;12.70;40.50
2783;DHT22;1399;47.072;15.452;2024-02-14T14:38:45;12.70;40.50
2783;DHT22;1399;47.072;15.452;2024-02-14T14:41:12;12.80;40.10
2783;DHT22;1399;47.072;15.452;2024-02-14T14:43:40;12.70;39.90
2783;DHT22;1399;47.072;15.452;2024-02-14T14:46:05;12.80;39.90
2783;DHT22;1399;47.072;15.452;2024-02-14T14:48:31;12.80;39.80
2783;DHT22;1399;47.072;15.452;2024-02-14T14:50:57;12.80;39.90
2783;DHT22;1399;47.072;15.452;2024-02-14T14:53:23;12.80;39.80
2783;DHT22;1399;47.072;15.452;2024-02-14T14:55:57;12.80;39.50
2783;DHT22;1399;47.072;15.452;2024-02-14T14:58:25;12.80;39.50
2783;DHT22;1399;47.072;15.452;2024-02-14T15:00:54;12.80;39.50
2783;DHT22;1399;47.072;15.452;2024-02-14T15:03:23;12.80;39.30
2783;DHT22;1399;47.072;15.452;2024-02-14T15:05:49;12.80;39.30
2783;DHT22;1399;47.072;15.452;2024-02-14T15:08:16;12.80;39.60
2783;DHT22;1399;47.072;15.452;2024-02-14T15:10:49;12.80;39.50
2783;DHT22;1399;47.072;15.452;2024-02-14T15:13:19;12.80;39.50
2783;DHT22;1399;47.072;15.452;2024-02-14T15:15:44;12.80;39.30
2783;DHT22;1399;47.072;15.452;2024-02-14T15:18:10;12.80;39.20
2783;DHT22;1399;47.072;15.452;2024-02-14T15:20:36;12.80;39.10
2783;DHT22;1399;47.072;15.452;2024-02-14T15:23:03;12.80;39.10
2783;DHT22;1399;47.072;15.452;2024-02-14T15:25:29;12.80;39.10
2783;DHT22;1399;47.072;15.452;2024-02-14T15:27:55;12.80;38.90
2783;DHT22;1399;47.072;15.452;2024-02-14T15:30:25;12.80;38.90
2783;DHT22;1399;47.072;15.452;2024-02-14T15:33:09;12.80;38.80
2783;DHT22;1399;47.072;15.452;2024-02-14T15:35:56;12.80;38.80
2783;DHT22;1399;47.072;15.452;2024-02-14T15:38:24;12.80;38.80
2783;DHT22;1399;47.072;15.452;2024-02-14T15:40:54;12.80;38.80
2783;DHT22;1399;47.072;15.452;2024-02-14T15:43:23;12.90;38.90
2783;DHT22;1399;47.072;15.452;2024-02-14T15:45:51;12.80;38.90
2783;DHT22;1399;47.072;15.452;2024-02-14T15:48:16;12.90;38.90
2783;DHT22;1399;47.072;15.452;2024-02-14T15:50:44;12.90;38.90